createdAt,value
2023-04-23T00:00:49.874Z,24.38
2023-04-23T00:03:19.275Z,24.05
2023-04-23T00:05:50.853Z,24.63
2023-04-23T00:08:19.066Z,24.60
2023-04-23T00:10:46.544Z,25.63
2023-04-23T00:13:14.061Z,26.13
2023-04-23T00:15:41.699Z,24.70
2023-04-23T00:18:08.987Z,26.17
2023-04-23T00:20:36.903Z,25.08
2023-04-23T00:23:05.570Z,25.65
2023-04-23T00:25:33.180Z,24.48
2023-04-23T00:28:00.487Z,25.48
2023-04-23T00:30:27.776Z,25.80
2023-04-23T00:32:55.341Z,25.13
2023-04-23T00:35:23.304Z,24.42
2023-04-23T00:37:50.596Z,25.48
2023-04-23T00:40:20.407Z,24.80
2023-04-23T00:42:48.713Z,25.17
2023-04-23T00:45:16.149Z,24.92
2023-04-23T00:47:43.822Z,25.63
2023-04-23T00:50:11.317Z,27.58
2023-04-23T00:52:40.519Z,27.35
2023-04-23T00:55:08.532Z,27.45
2023-04-23T00:57:37.627Z,27.63
2023-04-23T01:00:05.779Z,28.17
2023-04-23T01:02:33.462Z,29.73
2023-04-23T01:05:02.032Z,31.02
2023-04-23T01:07:29.413Z,29.90
2023-04-23T01:09:56.808Z,31.90
2023-04-23T01:12:24.212Z,32.17
2023-04-23T01:14:53.068Z,33.03
2023-04-23T01:17:21.388Z,33.67
2023-04-23T01:19:48.736Z,32.17
2023-04-23T01:22:17.885Z,32.67
2023-04-23T01:24:45.496Z,32.95
2023-04-23T01:27:12.898Z,34.00
2023-04-23T01:29:40.589Z,34.03
2023-04-23T01:32:08.415Z,34.17
2023-04-23T01:34:36.057Z,31.63
2023-04-23T01:37:04.295Z,31.38
2023-04-23T01:39:33.257Z,31.27
2023-04-23T01:42:01.307Z,31.25
2023-04-23T01:44:28.717Z,31.20
2023-04-23T01:46:57.340Z,31.70
2023-04-23T01:49:24.660Z,31.00
2023-04-23T01:51:51.958Z,31.90
2023-04-23T01:54:19.493Z,32.30
2023-04-23T01:56:48.158Z,33.80
2023-04-23T01:59:15.519Z,32.65
2023-04-23T02:01:44.219Z,34.30
2023-04-23T02:04:12.653Z,33.75
2023-04-23T02:06:40.362Z,35.65
2023-04-23T02:09:08.008Z,33.90
2023-04-23T02:11:35.334Z,36.63
2023-04-23T02:14:04.479Z,36.70
2023-04-23T02:16:32.728Z,36.88
2023-04-23T02:19:00.153Z,37.90
2023-04-23T02:21:27.643Z,37.75
2023-04-23T02:23:55.269Z,36.55
2023-04-23T02:26:24.912Z,39.30
2023-04-23T02:28:52.241Z,40.85
2023-04-23T02:31:21.494Z,38.67
2023-04-23T02:33:51.252Z,40.95
2023-04-23T02:36:18.785Z,42.25
2023-04-23T02:38:48.425Z,41.60
2023-04-23T02:41:15.799Z,41.13
2023-04-23T02:43:43.116Z,42.38
2023-04-23T02:46:10.619Z,45.95
2023-04-23T02:48:41.081Z,43.35
2023-04-23T02:51:09.502Z,44.28
2023-04-23T02:53:36.820Z,40.75
2023-04-23T02:56:04.267Z,46.47
2023-04-23T02:58:32.164Z,44.70
2023-04-23T03:00:59.693Z,42.97
2023-04-23T03:03:31.386Z,40.85
2023-04-23T03:06:00.641Z,41.55
2023-04-23T03:08:28.026Z,41.65
2023-04-23T03:10:55.409Z,39.67
2023-04-23T03:13:22.748Z,41.63
2023-04-23T03:15:51.342Z,41.67
2023-04-23T03:18:18.811Z,39.67
2023-04-23T03:20:46.327Z,40.72
2023-04-23T03:23:15.108Z,40.30
2023-04-23T03:25:42.442Z,36.13
2023-04-23T03:28:10.286Z,40.40
2023-04-23T03:30:37.707Z,37.78
2023-04-23T03:33:05.130Z,39.78
2023-04-23T03:35:32.520Z,38.33
2023-04-23T03:37:59.816Z,40.35
2023-04-23T03:40:28.439Z,38.42
2023-04-23T03:42:55.760Z,37.28
2023-04-23T03:45:23.057Z,37.38
2023-04-23T03:47:50.543Z,37.35
2023-04-23T03:50:18.290Z,38.85
2023-04-23T03:52:45.561Z,39.70
2023-04-23T03:55:13.017Z,40.08
2023-04-23T03:57:41.649Z,38.85
2023-04-23T04:00:11.674Z,38.92
2023-04-23T04:02:39.291Z,39.97
2023-04-23T04:05:07.255Z,38.65
2023-04-23T04:07:35.526Z,39.17
2023-04-23T04:10:03.671Z,37.38
2023-04-23T04:12:30.990Z,39.95
2023-04-23T04:14:59.730Z,35.10
2023-04-23T04:17:27.152Z,37.28
2023-04-23T04:19:54.466Z,35.90
2023-04-23T04:22:21.816Z,33.78
2023-04-23T04:24:51.934Z,32.58
2023-04-23T04:27:19.492Z,32.42
2023-04-23T04:29:46.813Z,30.70
2023-04-23T04:32:15.458Z,30.23
2023-04-23T04:34:42.976Z,29.50
2023-04-23T04:37:10.831Z,28.10
2023-04-23T04:39:38.214Z,28.08
2023-04-23T04:42:07.145Z,27.42
2023-04-23T04:44:34.462Z,27.40
2023-04-23T04:47:02.191Z,26.35
2023-04-23T04:49:30.960Z,25.20
2023-04-23T04:51:58.281Z,24.17
2023-04-23T04:54:25.563Z,24.98
2023-04-23T04:56:52.866Z,24.33
2023-04-23T04:59:20.172Z,22.45
2023-04-23T05:01:47.648Z,25.65
2023-04-23T05:04:15.082Z,26.90
2023-04-23T05:06:44.240Z,25.30
2023-04-23T05:09:11.654Z,26.00
2023-04-23T05:11:39.503Z,26.63
2023-04-23T05:14:06.859Z,26.30
2023-04-23T05:16:34.590Z,27.65
2023-04-23T05:19:02.012Z,27.73
2023-04-23T05:21:29.346Z,27.00
2023-04-23T05:23:58.044Z,26.23
2023-04-23T05:26:25.387Z,22.35
2023-04-23T05:28:52.728Z,20.92
2023-04-23T05:31:20.128Z,19.48
2023-04-23T05:33:50.462Z,17.52
2023-04-23T05:36:18.390Z,15.90
2023-04-23T05:38:45.742Z,14.80
2023-04-23T05:41:14.374Z,13.85
2023-04-23T05:43:41.792Z,12.30
2023-04-23T05:46:09.175Z,12.18
2023-04-23T05:48:36.553Z,11.18
2023-04-23T05:51:03.869Z,11.50
2023-04-23T05:53:31.219Z,10.30
2023-04-23T05:55:58.544Z,9.52
2023-04-23T05:58:27.246Z,10.50
2023-04-23T06:00:54.693Z,10.63
2023-04-23T06:03:22.210Z,10.02
2023-04-23T06:05:50.006Z,9.40
2023-04-23T06:08:17.417Z,10.25
2023-04-23T06:10:44.746Z,9.73
2023-04-23T06:13:12.289Z,9.50
2023-04-23T06:15:41.063Z,9.40
2023-04-23T06:18:10.233Z,9.63
2023-04-23T06:20:37.556Z,8.85
2023-04-23T06:23:04.834Z,8.75
2023-04-23T06:25:32.172Z,9.55
2023-04-23T06:27:59.486Z,9.15
2023-04-23T06:30:26.824Z,8.77
2023-04-23T06:32:55.562Z,7.75
2023-04-23T06:35:22.880Z,8.02
2023-04-23T06:37:50.274Z,7.07
2023-04-23T06:40:17.598Z,8.20
2023-04-23T06:42:45.375Z,7.03
2023-04-23T06:45:12.914Z,8.02
2023-04-23T06:47:40.253Z,7.82
2023-04-23T06:50:10.084Z,8.18
2023-04-23T06:52:37.520Z,7.00
2023-04-23T06:55:05.061Z,7.82
2023-04-23T06:57:32.352Z,7.03
2023-04-23T07:00:00.201Z,7.55
2023-04-23T07:02:27.611Z,7.00
2023-04-23T07:04:54.993Z,7.47
2023-04-23T07:07:23.653Z,5.97
2023-04-23T07:09:50.964Z,6.93
2023-04-23T07:12:18.372Z,6.40
2023-04-23T07:14:45.687Z,5.85
2023-04-23T07:17:13.032Z,6.47
2023-04-23T07:19:40.372Z,6.57
2023-04-23T07:22:07.651Z,6.03
2023-04-23T07:24:36.313Z,6.05
2023-04-23T07:27:03.790Z,5.60
2023-04-23T07:29:31.268Z,6.40
2023-04-23T07:31:58.646Z,5.50
2023-04-23T07:34:26.100Z,4.95
2023-04-23T07:36:53.411Z,5.32
2023-04-23T07:39:20.737Z,4.53
2023-04-23T07:41:49.456Z,4.93
2023-04-23T07:44:16.770Z,4.53
2023-04-23T07:46:44.066Z,4.50
2023-04-23T07:49:11.404Z,3.53
2023-04-23T07:51:38.742Z,4.43
2023-04-23T07:54:06.298Z,3.22
2023-04-23T07:56:33.606Z,4.13
2023-04-23T07:59:02.256Z,3.83
2023-04-23T08:01:29.624Z,3.58
2023-04-23T08:03:59.502Z,3.50
2023-04-23T08:06:27.967Z,3.80
2023-04-23T08:08:56.047Z,3.72
2023-04-23T08:11:23.586Z,3.55
2023-04-23T08:13:50.972Z,4.10
2023-04-23T08:16:19.862Z,3.28
2023-04-23T08:19:03.654Z,4.22
2023-04-23T08:21:32.447Z,3.70
2023-04-23T08:23:59.765Z,4.03
2023-04-23T08:26:27.132Z,3.50
2023-04-23T08:28:54.434Z,3.90
2023-04-23T08:31:26.903Z,3.42
2023-04-23T08:33:54.792Z,3.95
2023-04-23T08:36:22.110Z,3.35
2023-04-23T08:38:49.398Z,3.65
2023-04-23T08:41:18.956Z,3.17
2023-04-23T08:43:48.669Z,3.25
2023-04-23T08:46:16.939Z,3.25
2023-04-23T08:48:47.351Z,3.03
2023-04-23T08:51:18.615Z,2.50
2023-04-23T08:53:46.969Z,2.58
2023-04-23T08:56:14.768Z,2.75
2023-04-23T08:58:42.579Z,2.97
2023-04-23T09:01:10.121Z,2.53
2023-04-23T09:03:38.095Z,2.58
2023-04-23T09:06:07.074Z,2.00
2023-04-23T09:08:35.325Z,1.92
2023-04-23T09:11:03.006Z,2.35
2023-04-23T09:13:31.322Z,2.15
2023-04-23T09:15:58.863Z,2.03
2023-04-23T09:18:26.224Z,2.03
2023-04-23T09:20:54.419Z,2.10
2023-04-23T09:23:24.116Z,2.00
2023-04-23T09:25:52.394Z,1.90
2023-04-23T09:28:19.697Z,2.10
2023-04-23T09:30:47.051Z,1.30
2023-04-23T09:33:14.419Z,2.10
2023-04-23T09:35:43.248Z,2.00
2023-04-23T09:38:10.690Z,1.83
2023-04-23T09:40:39.369Z,1.80
2023-04-23T09:43:07.204Z,1.80
2023-04-23T09:45:36.135Z,1.77
2023-04-23T09:48:03.570Z,1.65
2023-04-23T09:50:33.085Z,2.05
2023-04-23T09:53:00.434Z,1.40
2023-04-23T09:55:28.727Z,1.30
2023-04-23T09:57:57.530Z,1.45
2023-04-23T10:00:29.112Z,1.77
2023-04-23T10:02:56.621Z,1.50
2023-04-23T10:05:29.118Z,1.70
2023-04-23T10:08:01.532Z,1.60
2023-04-23T10:10:28.839Z,1.90
2023-04-23T10:12:57.567Z,1.55
2023-04-23T10:15:26.295Z,1.60
2023-04-23T10:17:54.131Z,2.20
2023-04-23T10:20:21.921Z,1.88
2023-04-23T10:22:49.830Z,1.65
2023-04-23T10:25:17.175Z,1.42
2023-04-23T10:27:53.920Z,1.73
2023-04-23T10:30:23.549Z,1.70
2023-04-23T10:32:51.244Z,2.25
2023-04-23T10:35:18.606Z,1.83
2023-04-23T10:37:47.924Z,1.60
2023-04-23T10:40:15.882Z,1.67
2023-04-23T10:42:44.745Z,1.73
2023-04-23T10:45:24.218Z,1.60
2023-04-23T10:47:54.423Z,1.48
2023-04-23T10:50:25.730Z,1.40
2023-04-23T10:52:54.315Z,1.67
2023-04-23T10:55:22.503Z,1.77
2023-04-23T10:57:57.695Z,1.00
2023-04-23T11:00:26.293Z,1.33
2023-04-23T11:02:55.906Z,1.75
2023-04-23T11:05:24.120Z,1.52
2023-04-23T11:08:18.304Z,1.88
2023-04-23T11:10:57.630Z,3.80
2023-04-23T11:13:25.921Z,1.73
2023-04-23T11:16:13.695Z,2.20
2023-04-23T11:18:59.147Z,2.15
2023-04-23T11:21:44.281Z,1.63
2023-04-23T11:24:11.580Z,2.20
2023-04-23T11:26:39.304Z,2.38
2023-04-23T11:29:07.434Z,1.55
2023-04-23T11:31:35.141Z,2.28
2023-04-23T11:34:03.855Z,1.60
2023-04-23T11:36:31.244Z,1.70
2023-04-23T11:38:58.599Z,1.90
2023-04-23T11:41:26.051Z,1.10
2023-04-23T11:43:53.356Z,1.15
2023-04-23T11:46:20.966Z,1.73
2023-04-23T11:48:49.691Z,1.20
2023-04-23T11:51:18.377Z,1.60
2023-04-23T11:53:47.384Z,1.30
2023-04-23T11:56:16.925Z,1.67
2023-04-23T11:58:44.222Z,1.17
2023-04-23T12:01:12.515Z,1.45
2023-04-23T12:03:40.004Z,2.20
2023-04-23T12:06:07.688Z,1.40
2023-04-23T12:08:37.555Z,2.15
2023-04-23T12:11:06.153Z,1.10
2023-04-23T12:13:34.295Z,1.55
2023-04-23T12:16:02.881Z,1.55
2023-04-23T12:18:30.499Z,1.73
2023-04-23T12:20:58.399Z,1.25
2023-04-23T12:23:29.022Z,1.80
2023-04-23T12:25:57.683Z,1.45
2023-04-23T12:28:25.517Z,1.60
2023-04-23T12:30:52.858Z,1.50
2023-04-23T12:33:21.646Z,1.58
2023-04-23T12:35:50.865Z,1.42
2023-04-23T12:38:24.734Z,1.60
2023-04-23T12:40:52.129Z,1.63
2023-04-23T12:43:20.817Z,2.30
2023-04-23T12:45:48.219Z,1.50
2023-04-23T12:48:15.832Z,1.25
2023-04-23T12:50:43.580Z,1.40
2023-04-23T12:53:11.106Z,2.00
2023-04-23T12:55:39.383Z,1.58
2023-04-23T12:58:07.003Z,1.08
2023-04-23T13:00:35.768Z,1.60
2023-04-23T13:03:03.270Z,1.25
2023-04-23T13:05:30.704Z,1.33
2023-04-23T13:07:58.024Z,1.70
2023-04-23T13:10:25.872Z,1.10
2023-04-23T13:12:53.186Z,1.25
2023-04-23T13:15:20.649Z,1.13
2023-04-23T13:17:49.411Z,1.10
2023-04-23T13:20:16.875Z,1.45
2023-04-23T13:22:44.179Z,1.85
2023-04-23T13:25:11.517Z,1.90
2023-04-23T13:27:40.642Z,1.40
2023-04-23T13:30:08.701Z,1.35
2023-04-23T13:32:36.091Z,1.30
2023-04-23T13:35:05.070Z,1.48
2023-04-23T13:37:35.288Z,1.35
2023-04-23T13:40:02.665Z,1.73
2023-04-23T13:42:29.962Z,1.10
2023-04-23T13:44:57.405Z,1.13
2023-04-23T13:47:24.850Z,1.48
2023-04-23T13:49:52.179Z,1.20
2023-04-23T13:52:20.839Z,1.23
2023-04-23T13:54:50.340Z,1.45
2023-04-23T13:57:17.651Z,1.42
2023-04-23T13:59:45.030Z,1.13
2023-04-23T14:02:12.398Z,1.42
2023-04-23T14:04:40.629Z,1.27
2023-04-23T14:07:08.030Z,2.05
2023-04-23T14:09:36.690Z,1.55
2023-04-23T14:12:04.515Z,1.63
2023-04-23T14:14:31.858Z,1.13
2023-04-23T14:16:59.202Z,1.63
2023-04-23T14:19:26.546Z,3.38
2023-04-23T14:21:53.839Z,3.47
2023-04-23T14:24:23.512Z,2.97
2023-04-23T14:26:52.229Z,1.67
2023-04-23T14:29:21.043Z,1.55
2023-04-23T14:31:48.365Z,1.30
2023-04-23T14:34:16.236Z,1.60
2023-04-23T14:36:44.453Z,1.50
2023-04-23T14:39:12.422Z,1.90
2023-04-23T14:41:40.729Z,1.63
2023-04-23T14:44:09.371Z,2.35
2023-04-23T14:46:36.836Z,2.25
2023-04-23T14:49:04.147Z,2.10
2023-04-23T14:51:31.485Z,2.58
2023-04-23T14:53:58.790Z,2.30
2023-04-23T14:56:27.390Z,2.78
2023-04-23T14:58:54.869Z,2.28
2023-04-23T15:01:23.522Z,2.65
2023-04-23T15:03:51.296Z,2.75
2023-04-23T15:06:18.875Z,2.78
2023-04-23T15:08:46.185Z,2.45
2023-04-23T15:11:14.022Z,2.22
2023-04-23T15:13:45.144Z,3.03
2023-04-23T15:16:47.565Z,2.60
2023-04-23T15:19:17.474Z,3.20
2023-04-23T15:21:44.832Z,3.05
2023-04-23T15:24:12.168Z,3.30
2023-04-23T15:26:39.738Z,3.25
2023-04-23T15:29:08.620Z,5.70
2023-04-23T15:31:37.476Z,5.43
2023-04-23T15:34:07.050Z,3.13
2023-04-23T15:36:35.289Z,3.60
2023-04-23T15:39:02.618Z,3.90
2023-04-23T15:41:29.980Z,3.92
2023-04-23T15:43:57.300Z,4.40
2023-04-23T15:46:24.620Z,5.10
2023-04-23T15:48:53.248Z,5.53
2023-04-23T15:51:20.553Z,5.18
2023-04-23T15:53:47.862Z,5.80
2023-04-23T15:56:15.146Z,5.53
2023-04-23T15:58:42.451Z,5.10
2023-04-23T16:01:09.852Z,5.10
2023-04-23T16:03:37.430Z,6.95
2023-04-23T16:06:06.476Z,5.80
2023-04-23T16:08:33.748Z,7.10
2023-04-23T16:11:01.203Z,4.57
2023-04-23T16:13:28.935Z,5.20
2023-04-23T16:15:56.390Z,3.25
2023-04-23T16:18:23.696Z,3.03
2023-04-23T16:20:50.996Z,2.58
2023-04-23T16:23:19.607Z,2.03
2023-04-23T16:25:47.050Z,2.42
2023-04-23T16:28:14.395Z,7.00
2023-04-23T16:30:41.796Z,8.32
2023-04-23T16:33:09.339Z,3.83
2023-04-23T16:35:37.045Z,3.58
2023-04-23T16:38:04.309Z,2.30
2023-04-23T16:40:34.317Z,1.67
2023-04-23T16:43:01.573Z,2.65
2023-04-23T16:45:28.889Z,3.10
2023-04-23T16:47:56.428Z,2.90
2023-04-23T16:50:23.747Z,4.15
2023-04-23T16:52:51.038Z,3.88
2023-04-23T16:55:18.403Z,3.45
2023-04-23T16:57:47.010Z,2.35
2023-04-23T17:00:16.296Z,2.35
2023-04-23T17:02:43.655Z,1.73
2023-04-23T17:05:11.156Z,2.10
2023-04-23T17:07:40.628Z,2.35
2023-04-23T17:10:08.802Z,1.85
2023-04-23T17:12:36.151Z,2.05
2023-04-23T17:15:05.331Z,2.30
2023-04-23T17:17:32.751Z,2.20
2023-04-23T17:20:00.175Z,2.42
2023-04-23T17:22:27.519Z,1.85
2023-04-23T17:24:54.860Z,1.95
2023-04-23T17:27:22.227Z,1.92
2023-04-23T17:29:49.683Z,2.20
2023-04-23T17:32:18.366Z,2.58
2023-04-23T17:34:49.529Z,3.55
2023-04-23T17:37:21.846Z,5.32
2023-04-23T17:39:49.164Z,6.18
2023-04-23T17:42:17.078Z,6.35
2023-04-23T17:44:44.675Z,6.43
2023-04-23T17:47:13.974Z,4.97
2023-04-23T17:49:42.933Z,4.85
2023-04-23T17:52:10.520Z,3.80
2023-04-23T17:54:37.864Z,3.45
2023-04-23T17:57:06.636Z,3.97
2023-04-23T17:59:33.941Z,3.38
2023-04-23T18:02:02.456Z,3.42
2023-04-23T18:04:30.492Z,3.67
2023-04-23T18:06:59.223Z,3.30
2023-04-23T18:09:26.840Z,3.60
2023-04-23T18:11:56.004Z,2.80
2023-04-23T18:14:23.329Z,2.40
2023-04-23T18:16:50.885Z,2.90
2023-04-23T18:19:18.182Z,2.58
2023-04-23T18:21:45.766Z,2.80
2023-04-23T18:24:14.982Z,2.40
2023-04-23T18:26:42.363Z,2.40
2023-04-23T18:29:09.697Z,2.55
2023-04-23T18:31:37.426Z,2.28
2023-04-23T18:34:09.743Z,2.63
2023-04-23T18:36:38.075Z,1.90
2023-04-23T18:39:07.216Z,1.92
2023-04-23T18:41:36.228Z,2.25
2023-04-23T18:44:03.612Z,2.45
2023-04-23T18:46:31.767Z,2.53
2023-04-23T18:49:00.695Z,2.30
2023-04-23T18:51:33.005Z,2.15
2023-04-23T18:54:01.459Z,1.95
2023-04-23T18:56:28.967Z,3.10
2023-04-23T18:58:57.622Z,3.20
2023-04-23T19:01:27.638Z,2.47
2023-04-23T19:03:56.331Z,2.42
2023-04-23T19:06:23.808Z,4.25
2023-04-23T19:08:51.128Z,3.72
2023-04-23T19:11:18.447Z,2.65
2023-04-23T19:13:45.776Z,2.25
2023-04-23T19:16:16.551Z,1.58
2023-04-23T19:18:44.055Z,1.85
2023-04-23T19:21:11.489Z,1.60
2023-04-23T19:23:38.825Z,2.20
2023-04-23T19:26:06.239Z,1.05
2023-04-23T19:28:34.209Z,1.90
2023-04-23T19:31:01.843Z,1.77
2023-04-23T19:33:30.601Z,1.63
2023-04-23T19:35:57.919Z,1.80
2023-04-23T19:38:25.245Z,2.05
2023-04-23T19:40:52.571Z,1.98
2023-04-23T19:43:19.939Z,2.05
2023-04-23T19:45:47.372Z,1.80
2023-04-23T19:48:14.778Z,1.67
2023-04-23T19:50:43.468Z,1.90
2023-04-23T19:53:10.870Z,1.70
2023-04-23T19:55:38.183Z,1.50
2023-04-23T19:58:06.218Z,1.50
2023-04-23T20:00:38.882Z,1.50
2023-04-23T20:03:06.792Z,1.20
2023-04-23T20:05:34.327Z,1.70
2023-04-23T20:08:04.352Z,1.27
2023-04-23T20:10:31.675Z,1.48
2023-04-23T20:12:59.706Z,1.50
2023-04-23T20:15:27.248Z,1.33
2023-04-23T20:17:54.689Z,1.42
2023-04-23T20:20:22.493Z,1.17
2023-04-23T20:22:49.800Z,1.10
2023-04-23T20:25:20.236Z,1.20
2023-04-23T20:27:48.098Z,1.42
2023-04-23T20:30:16.433Z,0.63
2023-04-23T20:32:43.841Z,1.25
2023-04-23T20:35:11.196Z,0.50
2023-04-23T20:37:38.615Z,0.68
2023-04-23T20:40:07.430Z,0.47
2023-04-23T20:42:38.931Z,0.80
2023-04-23T20:45:06.850Z,0.70
2023-04-23T20:47:34.236Z,0.85
2023-04-23T20:50:01.661Z,0.80
2023-04-23T20:52:29.566Z,0.60
2023-04-23T20:54:56.900Z,0.60
2023-04-23T20:57:24.213Z,0.90
2023-04-23T20:59:52.878Z,0.55
2023-04-23T21:02:20.451Z,0.60
2023-04-23T21:04:47.961Z,0.68
2023-04-23T21:07:15.300Z,0.60
2023-04-23T21:09:42.809Z,0.52
2023-04-23T21:12:10.344Z,0.60
2023-04-23T21:14:37.659Z,0.60
2023-04-23T21:17:06.284Z,0.70
2023-04-23T21:19:33.645Z,0.70
2023-04-23T21:22:01.518Z,0.63
2023-04-23T21:24:28.909Z,0.65
2023-04-23T21:26:56.208Z,0.70
2023-04-23T21:29:23.517Z,0.70
2023-04-23T21:31:52.132Z,0.70
2023-04-23T21:34:21.339Z,0.60
2023-04-23T21:36:49.731Z,0.60
2023-04-23T21:39:17.237Z,0.55
2023-04-23T21:41:44.725Z,0.60
2023-04-23T21:44:12.094Z,0.80
2023-04-23T21:46:39.466Z,0.70
2023-04-23T21:49:06.773Z,0.85
2023-04-23T21:51:36.802Z,0.60
2023-04-23T21:54:05.448Z,0.43
2023-04-23T21:56:32.903Z,0.60
2023-04-23T21:59:00.326Z,0.60
2023-04-23T22:01:27.723Z,0.95
2023-04-23T22:03:55.178Z,0.60
2023-04-23T22:06:23.061Z,0.70
2023-04-23T22:08:52.334Z,0.70
2023-04-23T22:11:20.194Z,0.85
2023-04-23T22:13:47.512Z,0.70
2023-04-23T22:16:26.852Z,0.75
2023-04-23T22:18:55.267Z,0.70
2023-04-23T22:21:22.602Z,0.90
2023-04-23T22:23:50.008Z,0.80
2023-04-23T22:26:18.635Z,0.70
2023-04-23T22:28:45.942Z,0.70
2023-04-23T22:31:13.252Z,0.60
2023-04-23T22:33:40.529Z,0.52
2023-04-23T22:36:09.528Z,0.70
2023-04-23T22:38:36.819Z,0.80
2023-04-23T22:41:04.179Z,0.50
2023-04-23T22:43:32.843Z,0.60
2023-04-23T22:46:00.282Z,0.90
2023-04-23T22:48:27.756Z,0.85
2023-04-23T22:50:55.125Z,0.70
2023-04-23T22:53:22.410Z,0.82
2023-04-23T22:55:50.330Z,0.75
2023-04-23T22:58:17.711Z,0.80
2023-04-23T23:00:46.551Z,0.95
2023-04-23T23:03:13.991Z,0.85
2023-04-23T23:05:41.367Z,0.90
2023-04-23T23:08:08.673Z,0.90
2023-04-23T23:10:35.990Z,0.77
2023-04-23T23:13:03.343Z,0.80
2023-04-23T23:15:30.686Z,1.13
2023-04-23T23:17:59.435Z,0.80
2023-04-23T23:20:26.823Z,0.73
2023-04-23T23:22:54.379Z,1.00
2023-04-23T23:25:21.647Z,1.58
2023-04-23T23:27:48.983Z,0.90
2023-04-23T23:30:16.344Z,0.75
2023-04-23T23:32:43.770Z,1.00
2023-04-23T23:35:12.540Z,1.00
2023-04-23T23:37:39.796Z,1.20
2023-04-23T23:40:08.358Z,1.10
2023-04-23T23:42:35.671Z,1.10
2023-04-23T23:45:04.014Z,1.00
2023-04-23T23:47:31.469Z,0.90
2023-04-23T23:49:58.889Z,1.15
2023-04-23T23:52:27.579Z,0.80
2023-04-23T23:54:54.904Z,0.68
2023-04-23T23:57:22.204Z,0.93
2023-04-23T23:59:49.574Z,0.82
